Terminal Aerodrome Forecast
Issued by NWS St Louis, MO

Home | Current Version | Previous Version | Text Only | Print | Product List | Glossary On
Versions: 1 2 3 4 5 6 7 8 9 10 11 12 13 14 15
930
FTUS43 KLSX 092330
TAFCOU
TAF
KCOU 092330Z 1000/1024 31012G20KT P6SM BKN050
     FM100600 31009KT P6SM FEW250
     FM101800 VRB05KT 6SM -SHSN OVC050=

USA.gov is the U.S. government's official web portal to all federal, state and local government web resources and services.